Bluefield, WV

2:52 PM EDT on September 17, 2014 (GMT -0400)
Mercer County | Change Station
CLOSE
Current Station
Airport
Location: Bluefield,
Elevation: 2858 ft
Nearby Weather Stations

Elev 2858 ft 37.30 °N, 81.21 °W | Updated 19 minutes ago

Mostly Cloudy
Mostly Cloudy
67 °F
Feels Like 67 °F
N
5
Wind Variable Wind from Variable

Today
High -- | Low -- °F
--% Chance of Precip.
Yesterday
High -- | Low -- °F
Precip. -- in
7:08 AM 7:29 PM
Waning Crescent, 34% visible
Pressure 30.03 in
Visibility 10.0 miles
Clouds Few 2500 ft
Scattered Clouds 3100 ft
Mostly Cloudy 4700 ft
Dew Point 52 °F
Humidity 59%
Rainfall 0.00 in
Snow Depth Not available.
UV 4 out of 12
Pollen 5.30 out of 12
Air Quality Not available.
Flu Activity Not available.
SPECI KBLF 171833Z AUTO VRB04KT 10SM FEW025 SCT031 BKN047 19/11 A3003 RMK AO2 T01940111

More Conditions Fewer Conditions

Pressure 30.03 in
Visibility 10.0 miles
Clouds Few 2500 ft
Scattered Clouds 3100 ft
Mostly Cloudy 4700 ft
Dew Point 52 °F
Humidity 59%
Rainfall 0.00 in
Snow Depth Not available.
UV 4 out of 12
Pollen 5.30 out of 12
Air Quality Not available.
Flu Activity Not available.
SPECI KBLF 171833Z AUTO VRB04KT 10SM FEW025 SCT031 BKN047 19/11 A3003 RMK AO2 T01940111

More Conditions Fewer Conditions

10-Day Weather Forecast

Almanac

Astronomy

Sep. 17, 2014 Rise Set
Actual Time 7:08 AM EDT 7:29 PM EDT
Civil Twilight 6:42 AM EDT 7:55 PM EDT
Nautical Twilight 6:11 AM EDT 8:26 PM EDT
Astronomical Twilight 5:40 AM EDT 8:57 PM EDT
Moon 1:12 AM EDT 3:33 PM EDT
Length of Visible Light 13h 13m
Length of Day
12h 20m
Tomorrow will be 2m 21s shorter.
Waning Crescent, 34% of the Moon is Illuminated
Today
Waning Crescent
Sep 24
New
Oct 1
First Quarter
Oct 8
Full
Oct 15
Last Quarter

Today's Extremes

State Highs State Lows

Community

WunderPhotos

Upload Photos

1,754,127 photos uploaded!

WunderBlogs® & News

Nearby

Snow Depth

Station Depth Elevation
No new snow has been reported.

Earthquake Activity

City Distance Mag. Time & Date
No recent earthquake activity has been reported nearby.
Minimum magnitude displayed is 2.5.

Coastal Water Temperatures

Place Temperature
No Stations Reporting

Nearby Weather Stations